createdAt,value
2023-03-04T00:00:20.603Z,5.50
2023-03-04T00:01:20.596Z,5.20
2023-03-04T00:02:20.660Z,5.50
2023-03-04T00:03:20.653Z,5.40
2023-03-04T00:04:20.574Z,5.60
2023-03-04T00:05:20.561Z,5.30
2023-03-04T00:06:20.528Z,5.50
2023-03-04T00:07:20.521Z,5.40
2023-03-04T00:08:20.517Z,4.60
2023-03-04T00:09:20.502Z,4.40
2023-03-04T00:10:20.486Z,4.60
2023-03-04T00:11:20.492Z,4.60
2023-03-04T00:12:20.462Z,4.20
2023-03-04T00:13:20.454Z,4.60
2023-03-04T00:14:20.455Z,5.30
2023-03-04T00:15:20.440Z,4.40
2023-03-04T00:16:20.520Z,4.80
2023-03-04T00:17:20.440Z,4.30
2023-03-04T00:18:20.416Z,4.50
2023-03-04T00:19:20.408Z,4.70
2023-03-04T00:20:20.391Z,5.10
2023-03-04T00:21:20.369Z,4.40
2023-03-04T00:22:20.386Z,4.70
2023-03-04T00:23:20.345Z,4.50
2023-03-04T00:24:20.335Z,3.90
2023-03-04T00:25:20.323Z,5.00
2023-03-04T00:26:20.324Z,4.50
2023-03-04T00:27:20.313Z,5.40
2023-03-04T00:28:20.293Z,4.10
2023-03-04T00:29:20.302Z,4.10
2023-03-04T00:30:20.285Z,4.20
2023-03-04T00:31:20.327Z,3.90
2023-03-04T00:32:20.325Z,3.60
2023-03-04T00:33:20.258Z,4.20
2023-03-04T00:34:20.231Z,3.90
2023-03-04T00:35:20.333Z,4.10
2023-03-04T00:36:20.253Z,3.70
2023-03-04T00:37:20.191Z,4.20
2023-03-04T00:38:20.190Z,3.70
2023-03-04T00:39:20.195Z,3.70
2023-03-04T00:40:20.176Z,3.70
2023-03-04T00:41:20.154Z,3.70
2023-03-04T00:42:20.153Z,3.50
2023-03-04T00:43:27.152Z,4.60
2023-03-04T00:44:20.136Z,4.20
2023-03-04T00:45:20.125Z,3.50
2023-03-04T00:46:20.158Z,4.40
2023-03-04T00:47:20.080Z,4.20
2023-03-04T00:48:20.076Z,4.80
2023-03-04T00:49:20.171Z,4.40
2023-03-04T00:50:20.063Z,3.70
2023-03-04T00:51:20.061Z,4.30
2023-03-04T00:52:20.047Z,4.00
2023-03-04T00:53:20.018Z,4.50
2023-03-04T00:54:20.019Z,4.20
2023-03-04T00:55:20.008Z,4.50
2023-03-04T00:56:20.002Z,4.70
2023-03-04T00:57:19.986Z,3.90
2023-03-04T00:58:19.973Z,4.40
2023-03-04T00:59:19.966Z,4.40
2023-03-04T01:00:19.984Z,4.10
2023-03-04T01:01:19.964Z,5.10
2023-03-04T01:02:19.964Z,4.20
2023-03-04T01:03:19.909Z,3.40
2023-03-04T01:04:19.907Z,3.60
2023-03-04T01:05:19.903Z,3.30
2023-03-04T01:06:19.880Z,3.40
2023-03-04T01:07:19.900Z,3.60
2023-03-04T01:08:19.867Z,4.10
2023-03-04T01:09:19.863Z,3.70
2023-03-04T01:10:19.840Z,3.70
2023-03-04T01:11:19.826Z,3.60
2023-03-04T01:12:19.816Z,3.50
2023-03-04T01:13:19.803Z,3.40
2023-03-04T01:14:19.818Z,4.60
2023-03-04T01:15:19.777Z,3.80
2023-03-04T01:16:19.811Z,4.00
2023-03-04T01:17:19.765Z,3.30
2023-03-04T01:18:19.785Z,4.20
2023-03-04T01:19:19.743Z,3.80
2023-03-04T01:20:19.732Z,3.60
2023-03-04T01:21:19.717Z,4.20
2023-03-04T01:22:19.718Z,5.00
2023-03-04T01:23:19.716Z,3.80
2023-03-04T01:24:19.692Z,4.00
2023-03-04T01:25:19.709Z,3.60
2023-03-04T01:26:19.664Z,3.50
2023-03-04T01:27:19.660Z,4.90
2023-03-04T01:28:19.663Z,3.60
2023-03-04T01:29:19.637Z,3.50
2023-03-04T01:30:19.665Z,4.10
2023-03-04T01:31:19.626Z,4.20
2023-03-04T01:32:19.650Z,3.40
2023-03-04T01:33:19.586Z,3.90
2023-03-04T01:34:19.577Z,4.30
2023-03-04T01:35:19.652Z,3.80
2023-03-04T01:36:19.569Z,3.90
2023-03-04T01:37:19.553Z,3.60
2023-03-04T01:38:19.549Z,3.80
2023-03-04T01:39:19.560Z,4.10
2023-03-04T01:40:19.523Z,3.60
2023-03-04T01:41:19.517Z,3.80
2023-03-04T01:42:19.510Z,4.20
2023-03-04T01:43:19.499Z,4.00
2023-03-04T01:44:19.472Z,3.50
2023-03-04T01:45:19.473Z,3.60
2023-03-04T01:46:19.477Z,4.20
2023-03-04T01:47:19.458Z,4.60
2023-03-04T01:48:19.431Z,3.60
2023-03-04T01:49:19.417Z,4.20
2023-03-04T01:50:19.424Z,3.90
2023-03-04T01:51:19.405Z,3.90
2023-03-04T01:52:19.387Z,4.40
2023-03-04T01:53:19.373Z,4.20
2023-03-04T01:54:19.391Z,4.00
2023-03-04T01:55:19.375Z,4.70
2023-03-04T01:56:19.352Z,5.20
2023-03-04T01:57:19.362Z,4.10
2023-03-04T01:58:19.327Z,4.30
2023-03-04T01:59:19.338Z,4.50
2023-03-04T02:00:19.328Z,3.90
2023-03-04T02:01:19.346Z,3.70
2023-03-04T02:02:19.285Z,4.20
2023-03-04T02:03:19.272Z,4.00
2023-03-04T02:04:19.306Z,4.10
2023-03-04T02:05:19.266Z,3.90
2023-03-04T02:06:19.238Z,3.70
2023-03-04T02:07:19.226Z,3.70
2023-03-04T02:08:19.228Z,3.80
2023-03-04T02:09:19.249Z,3.80
2023-03-04T02:10:19.200Z,4.00
2023-03-04T02:11:19.207Z,3.70
2023-03-04T02:12:19.184Z,4.30
2023-03-04T02:13:19.176Z,3.70
2023-03-04T02:14:19.162Z,3.60
2023-03-04T02:15:19.151Z,3.70
2023-03-04T02:16:19.206Z,3.70
2023-03-04T02:17:19.135Z,3.70
2023-03-04T02:18:19.282Z,3.60
2023-03-04T02:19:19.116Z,4.10
2023-03-04T02:20:19.106Z,3.70
2023-03-04T02:21:19.083Z,3.30
2023-03-04T02:22:19.076Z,5.10
2023-03-04T02:23:19.099Z,4.40
2023-03-04T02:24:19.049Z,3.60
2023-03-04T02:25:19.031Z,3.90
2023-03-04T02:26:19.027Z,4.10
2023-03-04T02:27:21.893Z,4.20
2023-03-04T02:28:19.024Z,3.80
2023-03-04T02:29:18.991Z,4.20
2023-03-04T02:30:19.011Z,3.90
2023-03-04T02:31:19.003Z,3.50
2023-03-04T02:32:19.060Z,4.40
2023-03-04T02:33:18.957Z,4.10
2023-03-04T02:34:18.958Z,3.90
2023-03-04T02:35:18.936Z,3.50
2023-03-04T02:36:18.949Z,3.40
2023-03-04T02:37:18.933Z,3.60
2023-03-04T02:38:18.914Z,3.90
2023-03-04T02:39:18.882Z,3.70
2023-03-04T02:40:18.887Z,3.60
2023-03-04T02:41:18.907Z,3.30
2023-03-04T02:42:18.880Z,3.20
2023-03-04T02:43:18.872Z,3.40
2023-03-04T02:44:26.419Z,4.00
2023-03-04T02:45:18.819Z,3.20
2023-03-04T02:46:18.869Z,3.30
2023-03-04T02:47:18.812Z,3.30
2023-03-04T02:48:18.805Z,3.50
2023-03-04T02:49:18.773Z,3.10
2023-03-04T02:50:18.779Z,3.40
2023-03-04T02:51:18.769Z,3.60
2023-03-04T02:52:18.748Z,3.00
2023-03-04T02:53:18.734Z,3.40
2023-03-04T02:54:18.739Z,2.80
2023-03-04T02:55:18.740Z,3.40
2023-03-04T02:56:18.707Z,3.00
2023-03-04T02:57:18.693Z,3.00
2023-03-04T02:58:18.683Z,3.10
2023-03-04T02:59:18.690Z,3.10
2023-03-04T03:00:18.678Z,2.90
2023-03-04T03:01:18.648Z,3.50
2023-03-04T03:02:18.640Z,3.30
2023-03-04T03:03:18.628Z,3.80
2023-03-04T03:04:18.639Z,2.90
2023-03-04T03:05:18.609Z,3.30
2023-03-04T03:06:18.602Z,2.80
2023-03-04T03:07:18.649Z,3.50
2023-03-04T03:08:18.581Z,3.10
2023-03-04T03:09:18.593Z,3.20
2023-03-04T03:10:18.556Z,3.30
2023-03-04T03:11:18.542Z,3.60
2023-03-04T03:12:18.540Z,3.50
2023-03-04T03:13:18.544Z,3.60
2023-03-04T03:14:18.554Z,3.30
2023-03-04T03:15:18.536Z,2.70
2023-03-04T03:16:18.575Z,3.40
2023-03-04T03:17:18.510Z,3.50
2023-03-04T03:18:18.472Z,3.60
2023-03-04T03:19:18.473Z,3.40
2023-03-04T03:20:18.502Z,3.80
2023-03-04T03:21:18.456Z,2.80
2023-03-04T03:22:18.430Z,2.90
2023-03-04T03:23:18.425Z,3.30
2023-03-04T03:24:18.433Z,3.70
2023-03-04T03:25:18.412Z,2.90
2023-03-04T03:26:18.410Z,2.50
2023-03-04T03:27:18.373Z,2.90
2023-03-04T03:28:18.359Z,3.00
2023-03-04T03:29:18.368Z,3.90
2023-03-04T03:30:18.340Z,2.80
2023-03-04T03:31:18.425Z,3.30
2023-03-04T03:32:18.365Z,3.30
2023-03-04T03:33:18.330Z,2.90
2023-03-04T03:34:18.331Z,2.70
2023-03-04T03:35:18.357Z,2.70
2023-03-04T03:36:18.371Z,3.20
2023-03-04T03:37:18.264Z,3.10
2023-03-04T03:38:18.261Z,3.20
2023-03-04T03:39:18.246Z,2.90
2023-03-04T03:40:18.261Z,3.00
2023-03-04T03:41:18.226Z,3.30
2023-03-04T03:42:18.222Z,3.30
2023-03-04T03:43:18.224Z,3.20
2023-03-04T03:44:18.194Z,3.40
2023-03-04T03:45:18.177Z,3.60
2023-03-04T03:46:18.170Z,4.00
2023-03-04T03:47:18.250Z,3.50
2023-03-04T03:48:18.144Z,3.00
2023-03-04T03:49:18.126Z,4.40
2023-03-04T03:50:18.142Z,4.00
2023-03-04T03:51:18.116Z,3.30
2023-03-04T03:52:18.138Z,2.90
2023-03-04T03:53:18.098Z,3.70
2023-03-04T03:54:18.092Z,3.00
2023-03-04T03:55:18.067Z,3.40
2023-03-04T03:56:18.062Z,3.10
2023-03-04T03:57:18.054Z,3.10
2023-03-04T03:58:18.034Z,3.40
2023-03-04T03:59:18.029Z,3.00
2023-03-04T04:00:18.049Z,3.30
2023-03-04T04:01:18.013Z,3.00
2023-03-04T04:02:18.114Z,3.40
2023-03-04T04:03:18.008Z,3.30
2023-03-04T04:04:17.988Z,2.60
2023-03-04T04:05:17.963Z,3.40
2023-03-04T04:06:17.960Z,3.30
2023-03-04T04:07:17.960Z,3.10
2023-03-04T04:08:17.968Z,2.80
2023-03-04T04:09:17.920Z,3.50
2023-03-04T04:10:17.940Z,3.00
2023-03-04T04:11:17.895Z,2.90
2023-03-04T04:12:17.918Z,2.80
2023-03-04T04:13:17.890Z,2.70
2023-03-04T04:14:17.877Z,3.30
2023-03-04T04:15:17.878Z,3.30
2023-03-04T04:16:17.879Z,3.00
2023-03-04T04:17:17.840Z,3.30
2023-03-04T04:18:17.830Z,3.00
2023-03-04T04:19:17.862Z,3.40
2023-03-04T04:20:17.814Z,2.60
2023-03-04T04:21:17.790Z,2.90
2023-03-04T04:22:17.795Z,3.10
2023-03-04T04:23:17.804Z,3.00
2023-03-04T04:24:17.755Z,3.40
2023-03-04T04:25:17.772Z,2.90
2023-03-04T04:26:17.744Z,2.60
2023-03-04T04:27:17.732Z,2.70
2023-03-04T04:28:17.712Z,3.00
2023-03-04T04:29:17.696Z,2.80
2023-03-04T04:30:17.689Z,3.00
2023-03-04T04:31:17.682Z,3.40
2023-03-04T04:32:17.732Z,3.60
2023-03-04T04:33:17.657Z,2.50
2023-03-04T04:34:17.651Z,2.70
2023-03-04T04:35:17.658Z,2.80
2023-03-04T04:36:17.646Z,3.00
2023-03-04T04:37:17.627Z,2.70
2023-03-04T04:38:17.606Z,2.60
2023-03-04T04:39:17.589Z,3.90
2023-03-04T04:40:17.581Z,2.50
2023-03-04T04:41:17.586Z,2.40
2023-03-04T04:42:17.562Z,2.80
2023-03-04T04:43:17.547Z,2.30
2023-03-04T04:44:17.549Z,2.40
2023-03-04T04:45:25.061Z,2.40
2023-03-04T04:46:17.549Z,2.60
2023-03-04T04:47:17.515Z,2.50
2023-03-04T04:48:17.493Z,2.80
2023-03-04T04:49:17.481Z,2.30
2023-03-04T04:50:17.467Z,2.90
2023-03-04T04:51:17.476Z,3.10
2023-03-04T04:52:17.465Z,2.40
2023-03-04T04:53:17.466Z,3.10
2023-03-04T04:54:17.475Z,2.20
2023-03-04T04:55:17.432Z,3.80
2023-03-04T04:56:17.399Z,2.30
2023-03-04T04:57:17.395Z,2.40
2023-03-04T04:58:17.378Z,2.30
2023-03-04T04:59:17.376Z,2.60
2023-03-04T05:00:17.374Z,2.50
2023-03-04T05:01:17.448Z,2.70
2023-03-04T05:02:17.335Z,2.40
2023-03-04T05:03:18.576Z,2.60
2023-03-04T05:04:17.327Z,2.00
2023-03-04T05:05:17.316Z,2.50
2023-03-04T05:06:17.307Z,2.30
2023-03-04T05:07:17.307Z,2.60
2023-03-04T05:08:17.279Z,1.90
2023-03-04T05:09:17.283Z,2.50
2023-03-04T05:10:17.255Z,2.20
2023-03-04T05:11:17.280Z,2.60
2023-03-04T05:12:17.239Z,2.40
2023-03-04T05:13:17.238Z,2.30
2023-03-04T05:14:17.212Z,2.40
2023-03-04T05:15:17.242Z,2.50
2023-03-04T05:16:17.401Z,2.50
2023-03-04T05:17:17.212Z,2.70
2023-03-04T05:18:17.198Z,2.20
2023-03-04T05:19:17.171Z,2.50
2023-03-04T05:20:17.153Z,2.90
2023-03-04T05:21:17.168Z,2.30
2023-03-04T05:22:17.125Z,2.60
2023-03-04T05:23:17.155Z,2.60
2023-03-04T05:24:17.123Z,2.20
2023-03-04T05:25:17.102Z,2.50
2023-03-04T05:26:17.123Z,2.60
2023-03-04T05:27:17.085Z,2.60
2023-03-04T05:28:17.078Z,3.00
2023-03-04T05:29:17.075Z,2.40
2023-03-04T05:30:17.056Z,2.30
2023-03-04T05:31:17.088Z,2.40
2023-03-04T05:32:17.035Z,2.20
2023-03-04T05:33:17.036Z,3.30
2023-03-04T05:34:17.002Z,2.50
2023-03-04T05:35:17.073Z,3.40
2023-03-04T05:36:17.022Z,2.80
2023-03-04T05:37:16.998Z,3.00
2023-03-04T05:38:16.959Z,2.40
2023-03-04T05:39:16.995Z,2.80
2023-03-04T05:40:16.942Z,3.00
2023-03-04T05:41:16.930Z,2.90
2023-03-04T05:42:16.912Z,3.20
2023-03-04T05:43:16.907Z,3.10
2023-03-04T05:44:16.912Z,2.90
2023-03-04T05:45:16.884Z,2.80
2023-03-04T05:46:16.952Z,2.70
2023-03-04T05:47:16.861Z,3.10
2023-03-04T05:48:16.878Z,3.80
2023-03-04T05:49:16.841Z,2.70
2023-03-04T05:50:16.832Z,3.20
2023-03-04T05:51:16.862Z,2.90
2023-03-04T05:52:16.815Z,2.60
2023-03-04T05:53:16.808Z,3.20
2023-03-04T05:54:16.796Z,3.20
2023-03-04T05:55:16.797Z,3.20
2023-03-04T05:56:16.790Z,3.30
2023-03-04T05:57:16.767Z,3.80
2023-03-04T05:58:16.744Z,3.70
2023-03-04T05:59:16.750Z,3.40
2023-03-04T06:00:16.719Z,2.90
2023-03-04T06:01:16.714Z,2.80
2023-03-04T06:02:16.727Z,3.30
2023-03-04T06:03:16.697Z,3.30
2023-03-04T06:04:16.690Z,3.80
2023-03-04T06:05:16.691Z,3.50
2023-03-04T06:06:16.656Z,3.30
2023-03-04T06:07:16.651Z,3.50
2023-03-04T06:08:16.633Z,3.20
2023-03-04T06:09:16.627Z,4.10
2023-03-04T06:10:16.632Z,4.20
2023-03-04T06:11:16.632Z,3.60
2023-03-04T06:12:16.608Z,3.70
2023-03-04T06:13:16.582Z,4.20
2023-03-04T06:14:16.655Z,3.50
2023-03-04T06:15:16.572Z,3.50
2023-03-04T06:16:16.611Z,3.30
2023-03-04T06:17:16.538Z,3.20
2023-03-04T06:18:16.528Z,3.10
2023-03-04T06:19:16.524Z,3.10
2023-03-04T06:20:16.518Z,3.20
2023-03-04T06:21:16.499Z,3.70
2023-03-04T06:22:16.487Z,3.10
2023-03-04T06:23:16.510Z,3.00
2023-03-04T06:24:16.464Z,3.40
2023-03-04T06:25:16.459Z,3.40
2023-03-04T06:26:16.459Z,3.80
2023-03-04T06:27:16.480Z,2.90
2023-03-04T06:28:16.428Z,3.50
2023-03-04T06:29:16.426Z,3.20
2023-03-04T06:30:16.401Z,3.00
2023-03-04T06:31:16.428Z,3.10
2023-03-04T06:32:16.458Z,3.30
2023-03-04T06:33:16.432Z,3.80
2023-03-04T06:34:16.354Z,3.10
2023-03-04T06:35:16.363Z,2.70
2023-03-04T06:36:16.412Z,3.20
2023-03-04T06:37:16.362Z,2.70
2023-03-04T06:38:16.323Z,3.20
2023-03-04T06:39:16.314Z,3.10
2023-03-04T06:40:16.298Z,3.70
2023-03-04T06:41:16.286Z,3.00
2023-03-04T06:42:16.302Z,2.70
2023-03-04T06:43:16.302Z,3.10
2023-03-04T06:44:16.303Z,2.70
2023-03-04T06:45:16.408Z,3.10
2023-03-04T06:46:23.800Z,3.20
2023-03-04T06:47:16.227Z,2.90
2023-03-04T06:48:16.205Z,2.90
2023-03-04T06:49:16.207Z,2.70
2023-03-04T06:50:16.195Z,3.20
2023-03-04T06:51:16.173Z,2.50
2023-03-04T06:52:16.157Z,2.80
2023-03-04T06:53:16.156Z,2.90
2023-03-04T06:54:16.154Z,3.20
2023-03-04T06:55:16.140Z,3.30
2023-03-04T06:56:16.189Z,2.80
2023-03-04T06:57:16.125Z,3.60
2023-03-04T06:58:16.108Z,3.20
2023-03-04T06:59:16.124Z,3.60
2023-03-04T07:00:16.096Z,3.40
2023-03-04T07:01:16.126Z,3.30
2023-03-04T07:02:16.063Z,3.60
2023-03-04T07:03:16.056Z,2.90
2023-03-04T07:04:16.118Z,3.00
2023-03-04T07:05:16.032Z,2.60
2023-03-04T07:06:16.011Z,2.70
2023-03-04T07:07:16.037Z,2.90
2023-03-04T07:08:15.998Z,3.00
2023-03-04T07:09:16.007Z,2.60
2023-03-04T07:10:15.981Z,2.60
2023-03-04T07:11:15.966Z,2.70
2023-03-04T07:12:15.950Z,2.90
2023-03-04T07:13:15.952Z,2.80
2023-03-04T07:14:15.921Z,3.10
2023-03-04T07:15:15.954Z,2.40
2023-03-04T07:16:15.967Z,2.70
2023-03-04T07:17:15.893Z,2.80
2023-03-04T07:18:15.931Z,2.50
2023-03-04T07:19:15.890Z,2.70
2023-03-04T07:20:15.860Z,2.70
2023-03-04T07:21:15.854Z,2.50
2023-03-04T07:22:15.867Z,2.80
2023-03-04T07:23:15.843Z,2.10
2023-03-04T07:24:15.826Z,2.80
2023-03-04T07:25:15.806Z,2.20
2023-03-04T07:26:15.797Z,2.20
2023-03-04T07:27:15.786Z,2.60
2023-03-04T07:28:15.773Z,2.60
2023-03-04T07:29:15.772Z,2.70
2023-03-04T07:30:15.778Z,2.30
2023-03-04T07:31:15.908Z,3.40
2023-03-04T07:32:15.893Z,2.30
2023-03-04T07:33:15.726Z,2.20
2023-03-04T07:34:15.711Z,2.80
2023-03-04T07:35:15.732Z,2.60
2023-03-04T07:36:15.688Z,2.50
2023-03-04T07:37:15.676Z,2.20
2023-03-04T07:38:15.665Z,2.50
2023-03-04T07:39:15.672Z,2.90
2023-03-04T07:40:15.658Z,2.10
2023-03-04T07:41:15.663Z,2.40
2023-03-04T07:42:15.634Z,2.40
2023-03-04T07:43:15.617Z,2.90
2023-03-04T07:44:15.609Z,2.40
2023-03-04T07:45:15.591Z,2.50
2023-03-04T07:46:15.606Z,2.30
2023-03-04T07:47:15.612Z,2.30
2023-03-04T07:48:15.573Z,2.20
2023-03-04T07:49:15.562Z,2.30
2023-03-04T07:50:17.907Z,2.20
2023-03-04T07:51:15.533Z,2.30
2023-03-04T07:52:15.510Z,2.20
2023-03-04T07:53:15.525Z,3.00
2023-03-04T07:54:15.502Z,2.30
2023-03-04T07:55:15.489Z,2.10
2023-03-04T07:56:15.478Z,2.30
2023-03-04T07:57:15.459Z,2.30
2023-03-04T07:58:15.447Z,2.10
2023-03-04T07:59:15.450Z,2.10
2023-03-04T08:00:15.436Z,2.50
2023-03-04T08:01:15.415Z,2.30
2023-03-04T08:02:15.452Z,2.40
2023-03-04T08:03:15.416Z,2.80
2023-03-04T08:04:15.450Z,2.20
2023-03-04T08:05:15.388Z,2.00
2023-03-04T08:06:15.363Z,2.20
2023-03-04T08:07:15.348Z,2.30
2023-03-04T08:08:17.297Z,2.30
2023-03-04T08:09:15.341Z,1.80
2023-03-04T08:10:15.334Z,2.50
2023-03-04T08:11:15.306Z,2.30
2023-03-04T08:12:15.310Z,2.10
2023-03-04T08:13:15.283Z,2.00
2023-03-04T08:14:16.062Z,2.40
2023-03-04T08:15:15.269Z,2.40
2023-03-04T08:16:15.304Z,2.30
2023-03-04T08:17:15.272Z,2.10
2023-03-04T08:18:15.229Z,1.90
2023-03-04T08:19:15.248Z,2.50
2023-03-04T08:20:15.228Z,2.10
2023-03-04T08:21:15.218Z,1.80
2023-03-04T08:22:15.208Z,2.00
2023-03-04T08:23:15.188Z,1.60
2023-03-04T08:24:15.179Z,2.50
2023-03-04T08:25:15.154Z,2.20
2023-03-04T08:26:15.161Z,2.80
2023-03-04T08:27:15.140Z,2.10
2023-03-04T08:28:15.118Z,2.10
2023-03-04T08:29:15.123Z,2.10
2023-03-04T08:30:15.111Z,2.00
2023-03-04T08:31:15.222Z,1.90
2023-03-04T08:32:15.330Z,2.20
2023-03-04T08:33:15.068Z,2.10
2023-03-04T08:34:15.060Z,1.60
2023-03-04T08:35:15.074Z,2.70
2023-03-04T08:36:15.035Z,1.80
2023-03-04T08:37:15.039Z,1.70
2023-03-04T08:38:15.035Z,3.10
2023-03-04T08:39:15.009Z,2.00
2023-03-04T08:40:14.996Z,2.10
2023-03-04T08:41:14.981Z,2.10
2023-03-04T08:42:14.985Z,2.00
2023-03-04T08:43:14.972Z,2.00
2023-03-04T08:44:14.975Z,2.10
2023-03-04T08:45:14.939Z,1.90
2023-03-04T08:46:15.082Z,2.60
2023-03-04T08:47:22.425Z,2.20
2023-03-04T08:48:14.917Z,2.10
2023-03-04T08:49:14.922Z,1.90
2023-03-04T08:50:14.881Z,1.80
2023-03-04T08:51:14.917Z,1.90
2023-03-04T08:52:14.859Z,2.10
2023-03-04T08:53:14.863Z,2.00
2023-03-04T08:54:14.851Z,1.90
2023-03-04T08:55:14.823Z,2.20
2023-03-04T08:56:14.826Z,2.40
2023-03-04T08:57:14.816Z,2.20
2023-03-04T08:58:14.821Z,2.10
2023-03-04T08:59:14.788Z,2.10
2023-03-04T09:00:14.782Z,2.30
2023-03-04T09:01:14.778Z,2.00
2023-03-04T09:02:14.775Z,1.80
2023-03-04T09:03:14.816Z,1.90
2023-03-04T09:04:14.762Z,2.00
2023-03-04T09:05:14.730Z,2.00
2023-03-04T09:06:14.710Z,2.10
2023-03-04T09:07:14.725Z,2.10
2023-03-04T09:08:14.709Z,2.10
2023-03-04T09:09:14.674Z,2.20
2023-03-04T09:10:14.661Z,2.30
2023-03-04T09:11:14.663Z,2.60
2023-03-04T09:12:14.657Z,1.70
2023-03-04T09:13:14.662Z,2.40
2023-03-04T09:14:14.637Z,2.40
2023-03-04T09:15:14.621Z,2.00
2023-03-04T09:16:14.689Z,2.40
2023-03-04T09:17:14.584Z,2.10
2023-03-04T09:18:14.638Z,2.20
2023-03-04T09:19:14.571Z,2.80
2023-03-04T09:20:14.568Z,2.40
2023-03-04T09:21:14.564Z,2.40
2023-03-04T09:22:14.546Z,2.50
2023-03-04T09:23:14.549Z,2.40
2023-03-04T09:24:14.531Z,2.10
2023-03-04T09:25:14.537Z,2.20
2023-03-04T09:26:14.491Z,3.00
2023-03-04T09:27:14.500Z,2.40
2023-03-04T09:28:14.479Z,2.30
2023-03-04T09:29:14.468Z,2.70
2023-03-04T09:30:14.455Z,2.50
2023-03-04T09:31:14.572Z,2.70
2023-03-04T09:32:14.495Z,2.30
2023-03-04T09:33:14.445Z,2.60
2023-03-04T09:34:14.458Z,2.60
2023-03-04T09:35:14.389Z,3.00
2023-03-04T09:36:14.420Z,2.10
2023-03-04T09:37:14.378Z,2.30
2023-03-04T09:38:14.373Z,2.30
2023-03-04T09:39:14.369Z,2.50
2023-03-04T09:40:14.340Z,2.50
2023-03-04T09:41:14.330Z,2.30
2023-03-04T09:42:14.324Z,2.40
2023-03-04T09:43:14.594Z,2.70
2023-03-04T09:44:14.300Z,2.70
2023-03-04T09:45:14.299Z,2.30
2023-03-04T09:46:14.295Z,2.40
2023-03-04T09:47:14.260Z,2.30
2023-03-04T09:48:14.271Z,2.40
2023-03-04T09:49:14.257Z,3.10
2023-03-04T09:50:14.228Z,2.30
2023-03-04T09:51:14.230Z,2.60
2023-03-04T09:52:14.207Z,2.90
2023-03-04T09:53:14.204Z,3.10
2023-03-04T09:54:14.182Z,2.80
2023-03-04T09:55:14.191Z,2.30
2023-03-04T09:56:14.190Z,2.70
2023-03-04T09:57:14.169Z,3.20
2023-03-04T09:58:14.148Z,2.80
2023-03-04T09:59:14.135Z,2.60
2023-03-04T10:00:14.209Z,3.10
2023-03-04T10:01:14.107Z,2.90
2023-03-04T10:02:14.112Z,2.70
2023-03-04T10:03:14.154Z,2.60
2023-03-04T10:04:14.101Z,2.60
2023-03-04T10:05:14.061Z,2.80
2023-03-04T10:06:14.067Z,2.70
2023-03-04T10:07:14.052Z,3.10
2023-03-04T10:08:14.060Z,2.80
2023-03-04T10:09:14.033Z,3.30
2023-03-04T10:10:14.004Z,2.70
2023-03-04T10:11:14.158Z,2.50
2023-03-04T10:12:14.027Z,2.90
2023-03-04T10:13:13.987Z,2.60
2023-03-04T10:14:13.984Z,2.20
2023-03-04T10:15:13.952Z,2.60
2023-03-04T10:16:14.002Z,3.10
2023-03-04T10:17:13.939Z,2.70
2023-03-04T10:18:13.930Z,3.00
2023-03-04T10:19:13.957Z,2.30
2023-03-04T10:20:13.909Z,2.60
2023-03-04T10:21:13.882Z,2.80
2023-03-04T10:22:13.889Z,2.90
2023-03-04T10:23:13.866Z,2.50
2023-03-04T10:24:13.880Z,2.90
2023-03-04T10:25:13.839Z,2.70
2023-03-04T10:26:13.831Z,2.80
2023-03-04T10:27:13.850Z,2.70
2023-03-04T10:28:13.823Z,3.00
2023-03-04T10:29:13.794Z,2.50
2023-03-04T10:30:13.790Z,2.90
2023-03-04T10:31:13.850Z,2.60
2023-03-04T10:32:13.790Z,3.00
2023-03-04T10:33:13.749Z,3.00
2023-03-04T10:34:13.741Z,3.20
2023-03-04T10:35:13.744Z,2.40
2023-03-04T10:36:13.728Z,2.60
2023-03-04T10:37:13.717Z,3.00
2023-03-04T10:38:13.698Z,2.50
2023-03-04T10:39:13.679Z,2.60
2023-03-04T10:40:13.677Z,2.30
2023-03-04T10:41:13.685Z,2.40
2023-03-04T10:42:13.795Z,2.30
2023-03-04T10:43:13.649Z,2.20
2023-03-04T10:44:13.632Z,2.70
2023-03-04T10:45:13.608Z,2.70
2023-03-04T10:46:13.614Z,2.40
2023-03-04T10:47:13.611Z,3.20
2023-03-04T10:48:21.091Z,2.70
2023-03-04T10:49:13.561Z,2.80
2023-03-04T10:50:13.557Z,2.40
2023-03-04T10:51:13.554Z,2.80
2023-03-04T10:52:13.543Z,2.60
2023-03-04T10:53:13.523Z,2.30
2023-03-04T10:54:13.521Z,2.60
2023-03-04T10:55:13.494Z,1.80
2023-03-04T10:56:13.487Z,2.60
2023-03-04T10:57:13.489Z,2.20
2023-03-04T10:58:13.466Z,2.20
2023-03-04T10:59:13.470Z,2.10
2023-03-04T11:00:13.457Z,2.10
2023-03-04T11:01:13.497Z,2.50
2023-03-04T11:02:13.419Z,2.10
2023-03-04T11:03:13.411Z,1.90
2023-03-04T11:04:13.489Z,2.00
2023-03-04T11:05:13.397Z,2.10
2023-03-04T11:06:13.397Z,2.20
2023-03-04T11:07:13.385Z,2.20
2023-03-04T11:08:13.378Z,1.80
2023-03-04T11:09:13.346Z,1.90
2023-03-04T11:10:13.362Z,1.80
2023-03-04T11:11:13.332Z,2.10
2023-03-04T11:12:14.094Z,1.80
2023-03-04T11:13:13.309Z,1.80
2023-03-04T11:14:13.284Z,1.50
2023-03-04T11:15:13.311Z,1.80
2023-03-04T11:16:13.307Z,1.80
2023-03-04T11:17:13.246Z,1.50
2023-03-04T11:18:13.272Z,1.80
2023-03-04T11:19:13.227Z,1.60
2023-03-04T11:20:13.258Z,1.70
2023-03-04T11:21:13.200Z,1.70
2023-03-04T11:22:13.193Z,1.60
2023-03-04T11:23:13.178Z,2.00
2023-03-04T11:24:27.081Z,1.60
2023-03-04T11:25:13.169Z,1.70
2023-03-04T11:26:13.148Z,1.90
2023-03-04T11:27:13.135Z,1.50
2023-03-04T11:28:13.129Z,2.10
2023-03-04T11:29:13.140Z,1.70
2023-03-04T11:30:13.129Z,2.00
2023-03-04T11:31:13.110Z,1.80
2023-03-04T11:32:13.262Z,1.60
2023-03-04T11:33:13.084Z,2.10
2023-03-04T11:34:13.754Z,2.10
2023-03-04T11:35:13.067Z,1.80
2023-03-04T11:36:13.047Z,1.80
2023-03-04T11:37:13.032Z,2.00
2023-03-04T11:38:13.031Z,2.00
2023-03-04T11:39:13.048Z,1.80
2023-03-04T11:40:13.037Z,2.00
2023-03-04T11:41:13.012Z,1.60
2023-03-04T11:42:12.999Z,1.90
2023-03-04T11:43:12.986Z,2.10
2023-03-04T11:44:12.974Z,1.70
2023-03-04T11:45:27.391Z,1.70
2023-03-04T11:46:12.996Z,1.90
2023-03-04T11:47:12.965Z,2.10
2023-03-04T11:48:12.958Z,2.20
2023-03-04T11:49:12.920Z,1.90
2023-03-04T11:50:12.944Z,1.60
2023-03-04T11:51:13.142Z,1.50
2023-03-04T11:52:12.895Z,1.60
2023-03-04T11:53:12.881Z,1.90
2023-03-04T11:54:12.882Z,1.90
2023-03-04T11:55:12.860Z,1.60
2023-03-04T11:56:12.859Z,1.60
2023-03-04T11:57:12.939Z,1.60
2023-03-04T11:58:12.854Z,1.70
2023-03-04T11:59:12.848Z,1.40
2023-03-04T12:00:12.807Z,1.80
2023-03-04T12:01:12.798Z,1.50
2023-03-04T12:02:12.801Z,1.60
2023-03-04T12:03:13.208Z,1.80
2023-03-04T12:04:12.883Z,1.70
2023-03-04T12:05:12.752Z,1.50
2023-03-04T12:06:12.763Z,1.50
2023-03-04T12:07:12.725Z,2.20
2023-03-04T12:08:12.738Z,1.70
2023-03-04T12:09:12.743Z,1.90
2023-03-04T12:10:12.733Z,1.60
2023-03-04T12:11:12.695Z,2.20
2023-03-04T12:12:12.687Z,1.70
2023-03-04T12:13:12.659Z,2.10
2023-03-04T12:14:12.663Z,1.70
2023-03-04T12:15:12.642Z,2.20
2023-03-04T12:16:12.676Z,1.60
2023-03-04T12:17:12.636Z,1.70
2023-03-04T12:18:12.623Z,2.10
2023-03-04T12:19:12.620Z,1.90
2023-03-04T12:20:12.588Z,2.10
2023-03-04T12:21:12.587Z,2.10
2023-03-04T12:22:12.578Z,1.90
2023-03-04T12:23:12.560Z,1.70
2023-03-04T12:24:12.549Z,2.00
2023-03-04T12:25:12.545Z,2.10
2023-03-04T12:26:12.528Z,2.20
2023-03-04T12:27:12.524Z,2.20
2023-03-04T12:28:12.503Z,1.90
2023-03-04T12:29:12.492Z,1.90
2023-03-04T12:30:12.494Z,1.80
2023-03-04T12:31:12.529Z,1.90
2023-03-04T12:32:12.542Z,2.40
2023-03-04T12:33:12.600Z,1.90
2023-03-04T12:34:12.435Z,2.20
2023-03-04T12:35:12.442Z,1.70
2023-03-04T12:36:12.430Z,1.80
2023-03-04T12:37:12.411Z,2.00
2023-03-04T12:38:12.391Z,1.90
2023-03-04T12:39:12.400Z,2.00
2023-03-04T12:40:12.393Z,1.90
2023-03-04T12:41:12.407Z,2.00
2023-03-04T12:42:12.360Z,2.00
2023-03-04T12:43:12.334Z,1.80
2023-03-04T12:44:12.349Z,1.90
2023-03-04T12:45:12.336Z,1.60
2023-03-04T12:46:12.333Z,1.80
2023-03-04T12:47:12.301Z,1.90
2023-03-04T12:48:12.301Z,1.70
2023-03-04T12:49:19.797Z,2.20
2023-03-04T12:50:12.265Z,1.50
2023-03-04T12:51:12.277Z,2.20
2023-03-04T12:52:12.246Z,1.70
2023-03-04T12:53:12.231Z,2.50
2023-03-04T12:54:12.227Z,2.00
2023-03-04T12:55:12.219Z,1.90
2023-03-04T12:56:12.195Z,2.00
2023-03-04T12:57:12.210Z,1.80
2023-03-04T12:58:12.199Z,1.80
2023-03-04T12:59:12.171Z,2.20
2023-03-04T13:00:12.167Z,1.60
2023-03-04T13:01:12.153Z,2.20
2023-03-04T13:02:12.182Z,1.80
2023-03-04T13:03:12.324Z,2.00
2023-03-04T13:04:12.118Z,2.00
2023-03-04T13:05:12.117Z,1.80
2023-03-04T13:06:12.097Z,2.20
2023-03-04T13:07:13.035Z,2.20
2023-03-04T13:08:12.079Z,2.00
2023-03-04T13:09:12.063Z,2.00
2023-03-04T13:10:12.066Z,1.90
2023-03-04T13:11:12.057Z,2.60
2023-03-04T13:12:12.048Z,2.60
2023-03-04T13:13:12.022Z,2.40
2023-03-04T13:14:12.006Z,2.10
2023-03-04T13:15:11.988Z,1.90
2023-03-04T13:16:12.090Z,2.00
2023-03-04T13:17:11.984Z,1.90
2023-03-04T13:18:11.952Z,2.40